Flight Track Log - Related Links

Times and Time Zones

All times are in EDT time to prevent confusion due to time zone crossing. See the AWI3688 flight status page for this flight to view local times or setup timezone preferences in your user account.

Time Position Orientation Groundspeed Altitude Reporting Facility
EDT Latitude Longitude Course Direction KTS MPH feet Rate Location/Type
Fri 12:08:24 PM 39.8833 -75.2333 North 130 150 900  Level Philadelphia TRACON
Fri 12:09:36 PM 39.8667 -75.1500 105° East 195 224 3,800 2,455 Climbing Philadelphia TRACON
Fri 12:10:36 PM 39.8500 -75.0833 108° East 222 255 6,300 2,333 Climbing Philadelphia TRACON
Fri 12:11:00 PM 39.7999 -74.7829 105° East  Level FlightAware Approximate
Fri 12:11:42 PM 39.8333 -74.9833 102° East 261 300 8,700  Level Philadelphia TRACON
Fri 12:12:00 PM 39.8267 -74.6567 37° Northeast  Level FlightAware Approximate
Fri 12:12:42 PM 39.8167 -74.9000 105° East 266 306 10,700  Level Philadelphia TRACON
Fri 12:13:00 PM 39.9238 -74.5667 North  Level FlightAware Approximate
Fri 12:14:35 PM 39.8319 -74.6797 85° East 329 379 12,000  Level New York Center
Fri 12:15:33 PM 39.9139 -74.6003 37° Northeast 309 356 13,500 2,017 Climbing New York Center
Fri 12:16:34 PM 39.9956 -74.5181 38° Northeast 331 381 16,000 2,529 Climbing New York Center
Fri 12:17:34 PM 40.0731 -74.4411 37° Northeast 346 398 18,600 2,678 Climbing New York Center
Fri 12:18:35 PM 40.1419 -74.3714 38° Northeast 338 389 21,400 2,150 Climbing New York Center
Fri 12:19:34 PM 40.2128 -74.3044 36° Northeast 321 369 22,900 1,300 Climbing New York Center
Fri 12:20:35 PM 40.2839 -74.2319 38° Northeast 315 362 24,000 429 Climbing New York Center
Fri 12:22:08 PM 40.4042 -74.1106 38° Northeast 333 383 24,000  Level Boston Center
Fri 12:23:08 PM 40.4844 -74.0361 35° Northeast 344 396 24,000  Level Boston Center
Fri 12:24:08 PM 40.5683 -73.9972 19° North 349 402 24,000  Level Boston Center
Fri 12:25:08 PM 40.6586 -73.9447 24° Northeast 349 402 24,000  Level Boston Center
Fri 12:26:08 PM 40.7508 -73.8922 23° Northeast 349 402 24,000  Level Boston Center
Fri 12:27:08 PM 40.8311 -73.8197 34° Northeast 349 402 24,000  Level Boston Center
Fri 12:28:08 PM 40.9050 -73.7281 43° Northeast 349 402 24,000 -500 Level Boston Center
Fri 12:29:08 PM 40.9811 -73.6222 46° Northeast 349 402 23,000 -500 Descending Boston Center
Fri 12:30:08 PM 41.0550 -73.5467 38° Northeast 362 417 23,000 -500 Level Boston Center
Fri 12:31:08 PM 41.1308 -73.4514 43° Northeast 367 422 22,000 -1,000 Descending Boston Center
Fri 12:32:08 PM 41.2192 -73.3728 34° Northeast 373 429 21,000 -1,000 Descending Boston Center
Fri 12:33:08 PM 41.3275 -73.3578 North 371 427 20,000 -1,050 Descending Boston Center
Fri 12:34:08 PM 41.4425 -73.3289 11° North 371 427 18,900 -1,000 Descending Boston Center
Fri 12:35:08 PM 41.5244 -73.2386 40° Northeast 363 418 18,000 -850 Descending Boston Center
Fri 12:36:08 PM 41.6186 -73.1675 29° Northeast 380 437 17,200 -1,150 Descending Boston Center
Fri 12:37:08 PM 41.7250 -73.1717 358° North 362 417 15,700 -1,650 Descending Boston Center
Fri 12:38:08 PM 41.8181 -73.2619 324° Northwest 363 418 13,900 -1,676 Descending Boston Center
Fri 12:38:59 PM 41.8947 -73.3297 327° Northwest 391 450 12,600 -1,448 Descending Boston Center
Fri 12:39:35 PM 41.9506 -73.3808 326° Northwest 389 448 11,800 -1,304 Descending Boston Center
Fri 12:40:08 PM 41.9939 -73.4206 326° Northwest 384 442 11,100 -787 Descending Boston Center
Fri 12:40:36 PM 42.0353 -73.4603 325° Northwest 376 433 11,000  Descending Boston Center
Fri 12:41:08 PM 42.0622 -73.4831 328° Northwest 376 433 11,100 98 Climbing Boston Center
Fri 12:41:37 PM 42.1203 -73.5119 340° North 332 382 11,100 -100 Level Boston Center
Fri 12:42:08 PM 42.1639 -73.5353 338° Northwest 349 402 11,000 -100 Descending Boston Center
Fri 12:42:37 PM 42.2033 -73.5500 345° North 311 358 11,000 -800 Level Boston Center
Fri 12:43:08 PM 42.2447 -73.5703 340° North 326 375 10,200 -1,745 Descending Boston Center
Fri 12:43:32 PM 42.2739 -73.5819 344° North 284 327 9,400 -1,906 Descending Boston Center
Fri 12:44:33 PM 42.3444 -73.6114 343° North 270 311 7,500 -1,438 Descending Boston Center
Fri 12:45:33 PM 42.4150 -73.6436 341° North 270 311 6,500 -1,409 Descending Boston Center
Fri 12:46:28 PM 42.4833 -73.6647 347° North 259 298 4,800 -1,252 Descending Boston Center
Fri 12:47:28 PM 42.5500 -73.6689 357° North 237 273 4,100 -756 Descending Boston Center
Fri 12:48:35 PM 42.6144 -73.6956 343° North 203 234 3,200 -1,033 Descending Boston Center
Fri 12:49:30 PM 42.6642 -73.7192 341° North 202 232 2,000 -1,309 Descending Boston Center

Login

Don't have an account? Register now (free) for customized features, flight alerts, and more!